createdAt,value
2018-06-18T00:00:18.816Z,94.30
2018-06-18T00:02:47.041Z,94.20
2018-06-18T00:05:15.229Z,94.20
2018-06-18T00:07:43.427Z,94.30
2018-06-18T00:10:11.617Z,94.40
2018-06-18T00:12:39.819Z,94.40
2018-06-18T00:15:07.991Z,94.30
2018-06-18T00:17:36.186Z,94.40
2018-06-18T00:20:04.433Z,94.20
2018-06-18T00:22:32.618Z,94.30
2018-06-18T00:25:00.801Z,94.40
2018-06-18T00:27:28.984Z,94.30
2018-06-18T00:29:57.177Z,94.20
2018-06-18T00:32:25.378Z,94.00
2018-06-18T00:34:53.542Z,93.70
2018-06-18T00:37:21.762Z,93.80
2018-06-18T00:39:49.934Z,93.90
2018-06-18T00:42:18.145Z,94.20
2018-06-18T00:44:46.345Z,94.50
2018-06-18T00:47:14.558Z,94.70
2018-06-18T00:49:42.753Z,94.70
2018-06-18T00:52:10.958Z,94.80
2018-06-18T00:54:39.544Z,94.90
2018-06-18T00:57:07.722Z,94.90
2018-06-18T00:59:35.924Z,95.00
2018-06-18T01:02:04.097Z,95.10
2018-06-18T01:04:32.297Z,95.10
2018-06-18T01:07:00.468Z,95.10
2018-06-18T01:09:28.677Z,95.20
2018-06-18T01:11:56.857Z,95.20
2018-06-18T01:14:25.038Z,95.30
2018-06-18T01:16:53.205Z,95.30
2018-06-18T01:19:21.388Z,95.30
2018-06-18T01:21:49.597Z,95.40
2018-06-18T01:24:52.117Z,95.40
2018-06-18T01:27:20.344Z,95.30
2018-06-18T01:29:48.518Z,95.60
2018-06-18T01:32:16.721Z,95.70
2018-06-18T01:34:44.901Z,95.80
2018-06-18T01:37:13.060Z,95.90
2018-06-18T01:39:41.293Z,96.00
2018-06-18T01:42:09.404Z,96.00
2018-06-18T01:47:05.778Z,96.10
2018-06-18T01:49:33.969Z,96.10
2018-06-18T01:52:02.136Z,96.00
2018-06-18T01:54:30.353Z,95.90
2018-06-18T01:56:58.516Z,95.90
2018-06-18T01:59:26.697Z,95.90
2018-06-18T02:01:55.268Z,95.90
2018-06-18T02:04:23.460Z,96.20
2018-06-18T02:06:51.674Z,96.00
2018-06-18T02:09:19.850Z,95.90
2018-06-18T02:11:48.034Z,95.80
2018-06-18T02:14:16.233Z,95.90
2018-06-18T02:16:44.432Z,96.00
2018-06-18T02:19:12.629Z,96.00
2018-06-18T02:21:40.809Z,95.90
2018-06-18T02:24:08.988Z,95.90
2018-06-18T02:26:37.174Z,95.90
2018-06-18T02:29:10.822Z,95.80
2018-06-18T02:31:44.461Z,95.90
2018-06-18T02:34:18.159Z,95.90
2018-06-18T02:36:51.752Z,95.90
2018-06-18T02:39:19.937Z,96.00
2018-06-18T02:41:48.113Z,95.80
2018-06-18T02:44:16.313Z,95.80
2018-06-18T02:46:44.819Z,95.80
2018-06-18T02:49:13.019Z,95.80
2018-06-18T02:51:41.241Z,95.80
2018-06-18T02:54:09.561Z,95.90
2018-06-18T02:56:55.190Z,95.90
2018-06-18T02:59:23.348Z,95.80
2018-06-18T03:01:51.520Z,95.90
2018-06-18T03:04:19.700Z,95.90
2018-06-18T03:06:47.880Z,95.80
2018-06-18T03:09:16.063Z,95.60
2018-06-18T03:11:44.583Z,95.70
2018-06-18T03:14:12.782Z,95.60
2018-06-18T03:16:40.961Z,95.80
2018-06-18T03:19:14.538Z,95.70
2018-06-18T03:21:48.276Z,95.70
2018-06-18T03:24:21.822Z,95.90
2018-06-18T03:27:55.824Z,96.00
2018-06-18T03:30:24.037Z,96.10
2018-06-18T03:32:52.238Z,96.10
2018-06-18T03:35:20.437Z,96.30
2018-06-18T03:37:48.863Z,96.30
2018-06-18T03:40:17.044Z,96.30
2018-06-18T03:42:45.505Z,96.40
2018-06-18T03:45:23.057Z,96.50
2018-06-18T03:47:51.313Z,96.40
2018-06-18T03:50:19.517Z,96.70
2018-06-18T03:52:47.702Z,96.50
2018-06-18T03:55:36.553Z,96.60
2018-06-18T03:58:07.673Z,96.70
2018-06-18T04:00:45.745Z,96.80
2018-06-18T04:03:19.244Z,97.00
2018-06-18T04:05:52.805Z,97.10
2018-06-18T04:08:20.993Z,97.40
2018-06-18T04:10:54.626Z,97.50
2018-06-18T04:13:23.429Z,97.60
2018-06-18T04:15:51.613Z,97.70
2018-06-18T04:18:19.773Z,97.50
2018-06-18T04:20:49.224Z,97.50
2018-06-18T04:23:17.590Z,97.70
2018-06-18T04:25:45.978Z,97.90
2018-06-18T04:28:14.178Z,97.90
2018-06-18T04:30:44.121Z,97.90
2018-06-18T04:33:13.609Z,97.90
2018-06-18T04:35:41.782Z,98.00
2018-06-18T04:38:09.955Z,98.10
2018-06-18T04:40:38.142Z,98.10
2018-06-18T04:43:11.691Z,97.80
2018-06-18T04:45:46.086Z,97.80
2018-06-18T04:48:19.682Z,97.90
2018-06-18T04:50:53.254Z,97.90
2018-06-18T04:53:21.438Z,97.80
2018-06-18T04:55:49.633Z,97.40
2018-06-18T04:58:17.806Z,97.40
2018-06-18T05:01:21.365Z,97.30
2018-06-18T05:03:50.832Z,97.40
2018-06-18T05:06:19.106Z,97.10
2018-06-18T05:09:08.984Z,97.30
2018-06-18T05:11:37.288Z,97.00
2018-06-18T05:14:05.548Z,97.00
2018-06-18T05:16:33.839Z,97.10
2018-06-18T05:19:02.025Z,97.10
2018-06-18T05:21:30.205Z,97.30
2018-06-18T05:23:58.369Z,97.40
2018-06-18T05:26:26.588Z,97.40
2018-06-18T05:28:54.782Z,97.50
2018-06-18T05:31:22.962Z,97.60
2018-06-18T05:33:51.162Z,97.70
2018-06-18T05:36:19.366Z,97.80
2018-06-18T05:38:47.567Z,98.10
2018-06-18T05:41:15.850Z,98.20
2018-06-18T05:43:44.026Z,98.20
2018-06-18T05:46:12.226Z,98.20
2018-06-18T05:48:40.417Z,98.20
2018-06-18T05:51:08.593Z,98.10
2018-06-18T05:53:36.787Z,98.20
2018-06-18T05:56:04.999Z,98.20
2018-06-18T05:58:33.230Z,98.20
2018-06-18T06:01:01.385Z,98.10
2018-06-18T06:03:29.580Z,97.90
2018-06-18T06:05:57.793Z,97.60
2018-06-18T06:08:25.985Z,97.60
2018-06-18T06:10:54.173Z,97.40
2018-06-18T06:13:22.357Z,97.30
2018-06-18T06:15:50.577Z,97.20
2018-06-18T06:18:18.733Z,97.20
2018-06-18T06:20:50.141Z,97.20
2018-06-18T06:23:18.483Z,97.10
2018-06-18T06:25:46.659Z,96.80
2018-06-18T06:28:14.922Z,97.00
2018-06-18T06:30:43.117Z,96.60
2018-06-18T06:33:11.315Z,96.40
2018-06-18T06:35:40.982Z,95.80
2018-06-18T06:38:09.194Z,95.40
2018-06-18T06:40:37.378Z,95.10
2018-06-18T06:43:05.704Z,94.80
2018-06-18T06:45:33.890Z,93.80
2018-06-18T06:48:02.093Z,93.10
2018-06-18T06:50:30.269Z,91.60
2018-06-18T06:52:58.450Z,92.10
2018-06-18T06:55:27.017Z,91.70
2018-06-18T06:57:55.272Z,90.40
2018-06-18T07:00:23.450Z,90.40
2018-06-18T07:02:51.682Z,90.90
2018-06-18T07:05:19.857Z,90.60
2018-06-18T07:07:48.046Z,90.40
2018-06-18T07:10:16.229Z,90.20
2018-06-18T07:12:44.425Z,87.80
2018-06-18T07:15:12.586Z,89.50
2018-06-18T07:17:41.601Z,88.90
2018-06-18T07:20:09.801Z,87.80
2018-06-18T07:22:37.998Z,90.20
2018-06-18T07:25:06.158Z,90.00
2018-06-18T07:27:34.481Z,89.50
2018-06-18T07:30:02.705Z,89.40
2018-06-18T07:32:30.917Z,85.70
2018-06-18T07:34:59.091Z,83.60
2018-06-18T07:37:27.296Z,83.00
2018-06-18T07:39:55.697Z,83.70
2018-06-18T07:42:23.873Z,83.50
2018-06-18T07:44:52.070Z,82.80
2018-06-18T07:47:20.249Z,83.30
2018-06-18T07:49:48.429Z,83.50
2018-06-18T07:52:16.620Z,78.60
2018-06-18T07:54:44.792Z,78.10
2018-06-18T07:57:12.999Z,74.40
2018-06-18T07:59:41.224Z,75.20
2018-06-18T08:02:09.410Z,74.40
2018-06-18T08:07:05.917Z,76.10
2018-06-18T08:09:34.161Z,77.90
2018-06-18T08:12:02.320Z,77.40
2018-06-18T08:14:30.518Z,77.70
2018-06-18T08:16:58.689Z,78.20
2018-06-18T08:19:26.897Z,76.80
2018-06-18T08:21:55.079Z,76.80
2018-06-18T08:24:23.287Z,75.30
2018-06-18T08:26:51.464Z,75.10
2018-06-18T08:29:19.654Z,75.00
2018-06-18T08:31:47.839Z,70.30
2018-06-18T08:34:16.038Z,70.60
2018-06-18T08:36:44.218Z,69.20
2018-06-18T08:39:12.432Z,69.50
2018-06-18T08:41:40.648Z,67.40
2018-06-18T08:44:08.825Z,66.90
2018-06-18T08:46:37.097Z,67.30
2018-06-18T08:49:06.692Z,67.90
2018-06-18T08:51:40.366Z,68.40
2018-06-18T08:54:14.102Z,68.10
2018-06-18T08:56:47.621Z,67.00
2018-06-18T08:59:21.357Z,66.70
2018-06-18T09:01:49.993Z,64.60
2018-06-18T09:04:23.468Z,62.00
2018-06-18T09:06:51.658Z,63.50
2018-06-18T09:09:19.879Z,63.90
2018-06-18T09:11:48.033Z,64.30
2018-06-18T09:14:16.226Z,64.40
2018-06-18T09:19:12.374Z,63.20
2018-06-18T09:21:40.546Z,63.30
2018-06-18T09:24:08.751Z,63.90
2018-06-18T09:26:36.929Z,64.70
2018-06-18T09:29:05.157Z,65.70
2018-06-18T09:31:33.330Z,64.40
2018-06-18T09:34:01.522Z,64.60
2018-06-18T09:36:29.708Z,63.60
2018-06-18T09:38:57.899Z,64.20
2018-06-18T09:41:26.073Z,63.10
2018-06-18T09:43:54.302Z,62.30
2018-06-18T09:46:22.457Z,61.50
2018-06-18T09:49:53.618Z,62.00
2018-06-18T09:52:27.214Z,59.40
2018-06-18T09:55:00.873Z,60.40
2018-06-18T09:57:34.269Z,61.50
2018-06-18T10:00:07.047Z,62.50
2018-06-18T10:02:35.225Z,62.00
2018-06-18T10:05:03.416Z,61.50
2018-06-18T10:07:31.597Z,61.40
2018-06-18T10:09:59.789Z,57.60
2018-06-18T10:12:27.972Z,58.10
2018-06-18T10:14:56.146Z,58.20
2018-06-18T10:17:24.319Z,58.80
2018-06-18T10:19:52.867Z,59.10
2018-06-18T10:22:21.098Z,59.10
2018-06-18T10:24:49.365Z,58.60
2018-06-18T10:27:17.570Z,56.70
2018-06-18T10:29:45.842Z,57.90
2018-06-18T10:32:19.400Z,57.30
2018-06-18T10:34:53.010Z,57.40
2018-06-18T10:37:26.519Z,58.80
2018-06-18T10:40:00.206Z,57.60
2018-06-18T10:42:33.739Z,56.90
2018-06-18T10:45:01.930Z,56.50
2018-06-18T10:47:30.108Z,56.70
2018-06-18T10:49:58.361Z,54.30
2018-06-18T10:52:26.474Z,54.40
2018-06-18T10:54:54.665Z,54.40
2018-06-18T10:57:22.838Z,54.90
2018-06-18T10:59:51.073Z,55.20
2018-06-18T11:02:19.226Z,55.90
2018-06-18T11:04:52.900Z,55.00
2018-06-18T11:07:21.049Z,55.30
2018-06-18T11:09:49.328Z,54.90
2018-06-18T11:12:17.492Z,52.50
2018-06-18T11:14:45.677Z,51.40
2018-06-18T11:17:19.441Z,51.70
2018-06-18T11:19:52.970Z,51.20
2018-06-18T11:22:25.377Z,51.20
2018-06-18T11:27:06.464Z,52.40
2018-06-18T11:29:34.532Z,54.00
2018-06-18T11:32:02.724Z,54.10
2018-06-18T11:34:30.911Z,53.80
2018-06-18T11:39:27.103Z,53.00
2018-06-18T11:41:55.286Z,52.40
2018-06-18T11:44:23.388Z,51.60
2018-06-18T11:46:51.553Z,52.80
2018-06-18T11:49:19.728Z,51.80
2018-06-18T11:51:47.905Z,50.90
2018-06-18T11:54:16.099Z,51.30
2018-06-18T11:56:44.258Z,52.40
2018-06-18T11:59:17.787Z,51.60
2018-06-18T12:01:51.456Z,51.00
2018-06-18T12:04:25.355Z,52.50
2018-06-18T12:06:59.148Z,52.90
2018-06-18T12:09:29.071Z,52.50
2018-06-18T12:11:57.258Z,51.50
2018-06-18T12:14:25.490Z,48.80
2018-06-18T12:16:53.676Z,49.80
2018-06-18T12:19:21.916Z,49.80
2018-06-18T12:21:50.122Z,48.80
2018-06-18T12:24:18.331Z,50.30
2018-06-18T12:26:46.549Z,49.90
2018-06-18T12:29:14.967Z,48.90
2018-06-18T12:31:43.145Z,50.70
2018-06-18T12:34:11.329Z,50.40
2018-06-18T12:36:39.652Z,50.40
2018-06-18T12:39:09.707Z,48.00
2018-06-18T12:41:40.329Z,48.00
2018-06-18T12:44:08.517Z,48.30
2018-06-18T12:46:42.122Z,48.00
2018-06-18T12:49:15.569Z,47.90
2018-06-18T12:51:49.222Z,47.90
2018-06-18T12:54:22.797Z,46.50
2018-06-18T12:56:56.670Z,45.80
2018-06-18T12:59:24.838Z,47.30
2018-06-18T13:01:56.826Z,49.40
2018-06-18T13:04:25.011Z,47.10
2018-06-18T13:06:53.233Z,48.90
2018-06-18T13:09:21.417Z,48.20
2018-06-18T13:11:49.598Z,48.60
2018-06-18T13:14:17.796Z,50.20
2018-06-18T13:16:45.992Z,50.90
2018-06-18T13:19:14.183Z,49.30
2018-06-18T13:21:42.366Z,49.20
2018-06-18T13:24:10.532Z,49.60
2018-06-18T13:26:38.751Z,48.50
2018-06-18T13:29:06.921Z,48.40
2018-06-18T13:31:35.125Z,46.40
2018-06-18T13:34:03.298Z,45.50
2018-06-18T13:36:31.516Z,47.00
2018-06-18T13:39:05.008Z,47.90
2018-06-18T13:41:38.649Z,48.90
2018-06-18T13:44:12.239Z,47.70
2018-06-18T13:46:45.697Z,48.10
2018-06-18T13:49:13.874Z,48.90
2018-06-18T13:51:42.129Z,48.30
2018-06-18T13:54:10.300Z,47.80
2018-06-18T13:56:38.477Z,47.80
2018-06-18T13:59:06.638Z,48.20
2018-06-18T14:01:34.845Z,45.80
2018-06-18T14:04:03.034Z,45.10
2018-06-18T14:06:31.219Z,45.50
2018-06-18T14:08:59.400Z,45.60
2018-06-18T14:11:27.643Z,45.00
2018-06-18T14:13:55.925Z,46.70
2018-06-18T14:16:23.994Z,46.60
2018-06-18T14:18:52.179Z,45.40
2018-06-18T14:21:20.346Z,45.60
2018-06-18T14:23:48.562Z,45.80
2018-06-18T14:28:44.706Z,46.00
2018-06-18T14:31:18.362Z,46.80
2018-06-18T14:33:51.950Z,47.80
2018-06-18T14:36:25.681Z,46.70
2018-06-18T14:41:41.246Z,48.60
2018-06-18T14:44:09.440Z,48.80
2018-06-18T14:46:37.633Z,49.70
2018-06-18T14:49:05.797Z,48.40
2018-06-18T14:51:34.002Z,46.80
2018-06-18T14:54:02.214Z,43.90
2018-06-18T14:56:35.723Z,44.00
2018-06-18T14:59:11.196Z,43.30
2018-06-18T15:01:39.481Z,43.50
2018-06-18T15:04:07.727Z,43.20
2018-06-18T15:06:35.884Z,41.00
2018-06-18T15:09:06.034Z,41.40
2018-06-18T15:11:34.034Z,41.60
2018-06-18T15:14:02.281Z,41.30
2018-06-18T15:16:31.695Z,41.00
2018-06-18T15:19:01.009Z,42.40
2018-06-18T15:21:31.492Z,39.80
2018-06-18T15:24:01.472Z,36.00
2018-06-18T15:26:29.673Z,32.20
2018-06-18T15:28:57.873Z,31.80
2018-06-18T15:33:54.040Z,29.10
2018-06-18T15:36:22.274Z,28.90
2018-06-18T15:38:50.452Z,28.10
2018-06-18T15:41:18.908Z,27.10
2018-06-18T15:43:47.164Z,25.80
2018-06-18T15:46:15.293Z,24.90
2018-06-18T15:48:43.486Z,24.30
2018-06-18T15:51:11.694Z,23.80
2018-06-18T15:53:39.893Z,23.30
2018-06-18T15:56:08.146Z,22.80
2018-06-18T15:58:36.654Z,24.20
2018-06-18T16:01:04.824Z,25.50
2018-06-18T16:03:33.015Z,26.50
2018-06-18T16:06:01.274Z,26.90
2018-06-18T16:08:29.473Z,28.00
2018-06-18T16:10:57.667Z,28.70
2018-06-18T16:13:25.860Z,31.20
2018-06-18T16:15:54.041Z,33.10
2018-06-18T16:18:22.213Z,32.40
2018-06-18T16:20:50.497Z,34.00
2018-06-18T16:23:18.682Z,34.80
2018-06-18T16:25:46.874Z,35.80
2018-06-18T16:28:15.054Z,35.50
2018-06-18T16:30:43.266Z,36.70
2018-06-18T16:33:11.457Z,35.60
2018-06-18T16:35:39.653Z,36.30
2018-06-18T16:38:07.831Z,35.90
2018-06-18T16:40:36.041Z,38.50
2018-06-18T16:43:04.316Z,39.20
2018-06-18T16:45:32.498Z,39.10
2018-06-18T16:48:00.840Z,39.20
2018-06-18T16:50:29.046Z,38.00
2018-06-18T16:52:57.242Z,38.10
2018-06-18T16:55:25.431Z,37.40
2018-06-18T16:57:53.729Z,38.80
2018-06-18T17:00:21.923Z,39.20
2018-06-18T17:02:50.182Z,40.10
2018-06-18T17:05:18.286Z,39.80
2018-06-18T17:07:46.457Z,40.00
2018-06-18T17:10:14.654Z,40.80
2018-06-18T17:12:42.862Z,41.40
2018-06-18T17:15:11.418Z,41.90
2018-06-18T17:17:39.584Z,42.00
2018-06-18T17:20:07.776Z,43.30
2018-06-18T17:22:35.937Z,44.10
2018-06-18T17:25:04.171Z,44.10
2018-06-18T17:27:32.361Z,43.90
2018-06-18T17:30:00.594Z,44.30
2018-06-18T17:32:28.799Z,44.30
2018-06-18T17:34:57.009Z,45.30
2018-06-18T17:37:25.203Z,45.70
2018-06-18T17:39:53.565Z,44.40
2018-06-18T17:42:21.787Z,45.20
2018-06-18T17:44:49.976Z,45.60
2018-06-18T17:47:18.167Z,46.50
2018-06-18T17:49:46.391Z,46.90
2018-06-18T17:52:14.558Z,47.90
2018-06-18T17:54:42.950Z,49.00
2018-06-18T17:57:11.165Z,49.40
2018-06-18T17:59:39.365Z,49.40
2018-06-18T18:02:07.541Z,50.50
2018-06-18T18:04:35.831Z,50.60
2018-06-18T18:07:04.201Z,50.80
2018-06-18T18:09:32.451Z,51.40
2018-06-18T18:12:00.661Z,51.60
2018-06-18T18:14:28.809Z,52.10
2018-06-18T18:16:57.023Z,52.90
2018-06-18T18:19:25.272Z,52.90
2018-06-18T18:21:53.569Z,53.30
2018-06-18T18:24:21.797Z,53.70
2018-06-18T18:26:49.965Z,53.40
2018-06-18T18:29:18.214Z,54.00
2018-06-18T18:31:46.508Z,54.30
2018-06-18T18:34:14.693Z,55.20
2018-06-18T18:36:42.942Z,55.50
2018-06-18T18:39:11.126Z,55.50
2018-06-18T18:41:39.844Z,56.20
2018-06-18T18:46:36.392Z,57.20
2018-06-18T18:49:04.577Z,57.40
2018-06-18T18:51:32.790Z,57.70
2018-06-18T18:54:01.056Z,58.00
2018-06-18T18:57:42.132Z,58.30
2018-06-18T19:00:10.307Z,58.50
2018-06-18T19:02:38.504Z,58.50
2018-06-18T19:05:06.675Z,58.90
2018-06-18T19:07:38.145Z,59.40
2018-06-18T19:10:21.508Z,59.90
2018-06-18T19:12:51.448Z,61.10
2018-06-18T19:15:20.693Z,62.10
2018-06-18T19:17:53.288Z,63.00
2018-06-18T19:20:27.066Z,64.00
2018-06-18T19:22:56.766Z,64.30
2018-06-18T19:25:25.805Z,64.40
2018-06-18T19:27:54.811Z,64.70
2018-06-18T19:30:24.012Z,64.80
2018-06-18T19:32:55.163Z,64.80
2018-06-18T19:35:24.748Z,65.50
2018-06-18T19:37:53.850Z,66.70
2018-06-18T19:40:22.880Z,67.60
2018-06-18T19:42:51.093Z,68.50
2018-06-18T19:45:20.992Z,69.40
2018-06-18T19:47:55.494Z,70.40
2018-06-18T19:50:23.701Z,71.20
2018-06-18T19:52:51.884Z,71.90
2018-06-18T19:55:22.118Z,72.50
2018-06-18T19:57:51.008Z,73.20
2018-06-18T20:00:19.711Z,74.10
2018-06-18T20:02:47.898Z,75.00
2018-06-18T20:05:16.116Z,75.90
2018-06-18T20:07:56.969Z,76.70
2018-06-18T20:10:25.271Z,77.60
2018-06-18T20:12:54.033Z,78.70
2018-06-18T20:15:22.449Z,79.60
2018-06-18T20:17:50.695Z,80.10
2018-06-18T20:20:19.198Z,80.90
2018-06-18T20:22:47.617Z,81.40
2018-06-18T20:25:17.989Z,82.10
2018-06-18T20:27:46.433Z,82.50
2018-06-18T20:30:14.610Z,83.10
2018-06-18T20:32:42.801Z,83.70
2018-06-18T20:35:18.478Z,84.50
2018-06-18T20:37:46.884Z,85.30
2018-06-18T20:40:15.140Z,85.80
2018-06-18T20:42:43.434Z,86.40
2018-06-18T20:45:11.622Z,86.90
2018-06-18T20:47:40.940Z,87.40
2018-06-18T20:50:12.541Z,88.00
2018-06-18T20:52:47.565Z,88.60
2018-06-18T20:55:16.007Z,89.10
2018-06-18T20:57:44.176Z,89.50
2018-06-18T21:00:12.358Z,89.90
2018-06-18T21:02:40.616Z,89.90
2018-06-18T21:05:08.746Z,90.20
2018-06-18T21:07:36.920Z,90.30
2018-06-18T21:10:05.479Z,90.40
2018-06-18T21:12:33.748Z,90.70
2018-06-18T21:15:01.988Z,90.80
2018-06-18T21:17:30.213Z,90.80
2018-06-18T21:19:58.582Z,91.20
2018-06-18T21:22:26.777Z,91.40
2018-06-18T21:24:54.948Z,91.50
2018-06-18T21:27:23.221Z,91.40
2018-06-18T21:29:51.421Z,91.30
2018-06-18T21:32:19.614Z,91.50
2018-06-18T21:34:48.013Z,91.60
2018-06-18T21:37:16.237Z,91.80
2018-06-18T21:39:44.435Z,91.90
2018-06-18T21:42:12.607Z,92.10
2018-06-18T21:44:55.235Z,92.10
2018-06-18T21:47:23.432Z,92.30
2018-06-18T21:49:51.621Z,92.20
2018-06-18T21:52:19.798Z,92.50
2018-06-18T21:54:47.980Z,92.60
2018-06-18T21:57:16.224Z,92.70
2018-06-18T21:59:44.989Z,92.80
2018-06-18T22:02:13.161Z,92.90
2018-06-18T22:04:41.350Z,93.10
2018-06-18T22:07:09.533Z,93.10
2018-06-18T22:09:37.725Z,93.20
2018-06-18T22:12:06.090Z,93.50
2018-06-18T22:14:34.287Z,93.40
2018-06-18T22:17:02.489Z,93.30
2018-06-18T22:19:30.725Z,93.40
2018-06-18T22:21:58.889Z,93.40
2018-06-18T22:24:27.123Z,93.50
2018-06-18T22:29:23.253Z,93.70
2018-06-18T22:31:51.455Z,94.00
2018-06-18T22:34:19.717Z,94.00
2018-06-18T22:36:47.816Z,94.00
2018-06-18T22:39:16.025Z,94.00
2018-06-18T22:41:44.209Z,94.10
2018-06-18T22:44:12.459Z,94.30
2018-06-18T22:46:40.649Z,94.20
2018-06-18T22:49:08.896Z,94.20
2018-06-18T22:51:37.122Z,94.40
2018-06-18T22:54:05.451Z,94.60
2018-06-18T22:56:33.502Z,94.70
2018-06-18T22:59:01.695Z,94.60
2018-06-18T23:01:29.883Z,94.60
2018-06-18T23:03:58.068Z,94.70
2018-06-18T23:06:26.242Z,94.80
2018-06-18T23:08:54.421Z,94.80
2018-06-18T23:11:22.606Z,94.80
2018-06-18T23:13:50.809Z,94.80
2018-06-18T23:16:19.010Z,95.00
2018-06-18T23:18:47.202Z,95.10
2018-06-18T23:21:15.357Z,95.30
2018-06-18T23:23:43.570Z,95.10
2018-06-18T23:26:11.767Z,95.20
2018-06-18T23:28:47.733Z,95.20
2018-06-18T23:31:15.954Z,95.10
2018-06-18T23:33:44.154Z,95.10
2018-06-18T23:36:12.354Z,95.20
2018-06-18T23:38:40.537Z,95.20
2018-06-18T23:41:08.725Z,95.30
2018-06-18T23:43:36.913Z,95.30
2018-06-18T23:46:05.263Z,95.40
2018-06-18T23:48:33.447Z,95.40
2018-06-18T23:51:01.698Z,95.40
2018-06-18T23:53:29.932Z,95.40
2018-06-18T23:55:58.131Z,95.40
2018-06-18T23:58:26.445Z,95.60
